Time;durP1;ratioP1;P1;durP2;ratioP2;P2;SDS_P1;SDS_P2;PMS_P1;PMS_P2;Temp;Humidity;BMP_temperature;BMP_pressure;BME280_temperature;BME280_humidity;BME280_pressure;Samples;Min_cycle;Max_cycle;Signal;HPM_P1;HPM_P2
2023/05/13 00:01:37;;;;;;;;;;;13.90;99.90;;;;;;5031979;28;20005;-38
2023/05/13 00:04:03;;;;;;;;;;;13.90;99.90;;;;;;5031993;28;20385;-38
2023/05/13 00:06:29;;;;;;;;;;;13.80;99.90;;;;;;5031265;28;19909;-38
2023/05/13 00:08:55;;;;;;;;;;;13.80;99.90;;;;;;5031846;28;19950;-38
2023/05/13 00:11:20;;;;;;;;;;;13.80;99.90;;;;;;5031848;28;20450;-38
2023/05/13 00:13:46;;;;;;;;;;;13.80;99.90;;;;;;5031910;28;19963;-38
2023/05/13 00:16:11;;;;;;;;;;;13.80;99.90;;;;;;5031679;28;19912;-38
2023/05/13 00:18:37;;;;;;;;;;;13.80;99.90;;;;;;5031740;28;20372;-38
2023/05/13 00:21:02;;;;;;;;;;;13.80;99.90;;;;;;5032086;28;19909;-38
2023/05/13 00:23:28;;;;;;;;;;;13.80;99.90;;;;;;5031832;28;19912;-37
2023/05/13 00:25:53;;;;;;;;;;;13.70;99.90;;;;;;5031213;28;19905;-38
2023/05/13 00:28:20;;;;;;;;;;;13.70;99.90;;;;;;5031580;28;20039;-38
2023/05/13 00:30:45;;;;;;;;;;;13.70;99.90;;;;;;5031678;28;19952;-38
2023/05/13 00:33:11;;;;;;;;;;;13.80;99.90;;;;;;5031565;28;19994;-38
2023/05/13 00:35:36;;;;;;;;;;;13.70;99.90;;;;;;5031485;28;20289;-38
2023/05/13 00:38:02;;;;;;;;;;;13.70;99.90;;;;;;5031124;28;19913;-38
2023/05/13 00:40:27;;;;;;;;;;;13.70;99.90;;;;;;5031551;28;19949;-38
2023/05/13 00:42:53;;;;;;;;;;;13.70;99.90;;;;;;5031692;28;20321;-38
2023/05/13 00:45:18;;;;;;;;;;;13.70;99.90;;;;;;5031711;28;19912;-38
2023/05/13 00:47:44;;;;;;;;;;;13.70;99.90;;;;;;5034388;28;19905;-38
2023/05/13 00:50:10;;;;;;;;;;;13.70;99.90;;;;;;5035167;28;19916;-38
2023/05/13 00:52:37;;;;;;;;;;;13.70;99.90;;;;;;5035129;28;19905;-38
2023/05/13 00:55:03;;;;;;;;;;;13.70;99.90;;;;;;5034940;28;19915;-39
2023/05/13 00:57:29;;;;;;;;;;;13.70;99.90;;;;;;5034403;28;20336;-39
2023/05/13 00:59:54;;;;;;;;;;;13.80;99.90;;;;;;5034964;28;19905;-38
2023/05/13 01:02:25;;;;;;;;;;;13.70;99.90;;;;;;5034971;28;19950;-38
2023/05/13 01:05:09;;;;;;;;;;;13.70;99.90;;;;;;5035043;28;19916;-38
2023/05/13 01:07:43;;;;;;;;;;;13.70;99.90;;;;;;5034357;28;19941;-39
2023/05/13 01:10:18;;;;;;;;;;;13.70;99.90;;;;;;5034700;28;20267;-39
2023/05/13 01:12:45;;;;;;;;;;;13.80;99.90;;;;;;5034747;28;19944;-38
2023/05/13 01:15:20;;;;;;;;;;;13.70;99.90;;;;;;5034402;28;19978;-38
2023/05/13 01:17:53;;;;;;;;;;;13.70;99.90;;;;;;5034164;28;19913;-38
2023/05/13 01:20:20;;;;;;;;;;;13.70;99.90;;;;;;5033320;28;19905;-38
2023/05/13 01:22:46;;;;;;;;;;;13.70;99.90;;;;;;5034523;28;20011;-39
2023/05/13 01:25:11;;;;;;;;;;;13.70;99.90;;;;;;5034472;28;19948;-38
2023/05/13 01:27:37;;;;;;;;;;;13.70;99.90;;;;;;5033639;28;19909;-38
2023/05/13 01:30:03;;;;;;;;;;;13.70;99.90;;;;;;5034382;28;19986;-38
2023/05/13 01:32:28;;;;;;;;;;;13.70;99.90;;;;;;5034410;28;19911;-39
2023/05/13 01:34:54;;;;;;;;;;;13.70;99.90;;;;;;5034230;28;19909;-38
2023/05/13 01:37:19;;;;;;;;;;;13.70;99.90;;;;;;5034282;28;20270;-38
2023/05/13 01:39:45;;;;;;;;;;;13.80;99.90;;;;;;5034219;28;19905;-38
2023/05/13 01:42:11;;;;;;;;;;;13.80;99.90;;;;;;5034105;28;19905;-39
2023/05/13 01:44:36;;;;;;;;;;;13.80;99.90;;;;;;5034306;28;19909;-37
2023/05/13 01:47:02;;;;;;;;;;;13.80;99.90;;;;;;5033584;28;20477;-39
2023/05/13 01:49:27;;;;;;;;;;;13.80;99.90;;;;;;5034047;28;19944;-39
2023/05/13 01:51:53;;;;;;;;;;;13.80;99.90;;;;;;5034058;28;20007;-38
2023/05/13 01:54:18;;;;;;;;;;;13.80;99.90;;;;;;5033876;28;19909;-38
2023/05/13 01:56:44;;;;;;;;;;;13.80;99.90;;;;;;5033226;28;19905;-38
2023/05/13 01:59:10;;;;;;;;;;;13.80;99.90;;;;;;5033059;28;19959;-38
2023/05/13 02:01:35;;;;;;;;;;;13.80;99.90;;;;;;5034008;28;20437;-38
2023/05/13 02:04:01;;;;;;;;;;;13.80;99.90;;;;;;5033925;28;19909;-38
2023/05/13 02:06:27;;;;;;;;;;;13.80;99.90;;;;;;5033282;28;20393;-38
2023/05/13 02:08:53;;;;;;;;;;;13.70;99.90;;;;;;5033582;28;19929;-38
2023/05/13 02:11:18;;;;;;;;;;;13.80;99.90;;;;;;5033550;28;19947;-38
2023/05/13 02:13:44;;;;;;;;;;;13.80;99.90;;;;;;5033513;28;19967;-38
2023/05/13 02:16:13;;;;;;;;;;;13.80;99.90;;;;;;5032944;28;20389;-38
2023/05/13 02:18:38;;;;;;;;;;;13.80;99.90;;;;;;5033751;28;19996;-38
2023/05/13 02:21:04;;;;;;;;;;;13.80;99.90;;;;;;5033758;28;20416;-38
2023/05/13 02:23:29;;;;;;;;;;;13.80;99.90;;;;;;5033385;28;19905;-38
2023/05/13 02:25:55;;;;;;;;;;;13.80;99.90;;;;;;5032841;28;19938;-38
2023/05/13 02:28:20;;;;;;;;;;;13.80;99.90;;;;;;5033219;28;20382;-38
2023/05/13 02:30:46;;;;;;;;;;;13.80;99.90;;;;;;5033443;28;19909;-38
2023/05/13 02:33:11;;;;;;;;;;;13.80;99.90;;;;;;5033257;28;19959;-38
2023/05/13 02:35:37;;;;;;;;;;;13.70;99.90;;;;;;5033057;28;19909;-40
2023/05/13 02:38:03;;;;;;;;;;;13.70;99.90;;;;;;5032501;28;20290;-38
2023/05/13 02:40:28;;;;;;;;;;;13.70;99.90;;;;;;5032999;28;20009;-38
2023/05/13 02:42:54;;;;;;;;;;;13.70;99.90;;;;;;5033127;28;19916;-38
2023/05/13 02:45:19;;;;;;;;;;;13.70;99.90;;;;;;5032945;28;19984;-38
2023/05/13 02:47:45;;;;;;;;;;;13.70;99.90;;;;;;5032503;28;20493;-38
2023/05/13 02:50:11;;;;;;;;;;;13.70;99.90;;;;;;5032963;28;19909;-38
2023/05/13 02:52:38;;;;;;;;;;;13.70;99.90;;;;;;5033253;28;19955;-37
2023/05/13 02:55:05;;;;;;;;;;;13.70;99.90;;;;;;5032707;28;19916;-38
2023/05/13 02:57:31;;;;;;;;;;;13.70;99.90;;;;;;5032228;28;19905;-38
2023/05/13 02:59:56;;;;;;;;;;;13.70;99.90;;;;;;5032761;28;19916;-38
2023/05/13 03:02:22;;;;;;;;;;;13.70;99.90;;;;;;5032767;28;19905;-38
2023/05/13 03:04:47;;;;;;;;;;;13.70;99.90;;;;;;5032610;28;19959;-38
2023/05/13 03:07:13;;;;;;;;;;;13.70;99.90;;;;;;5032071;28;20339;-38
2023/05/13 03:09:41;;;;;;;;;;;13.70;99.90;;;;;;5032395;28;19908;-38
2023/05/13 03:12:07;;;;;;;;;;;13.70;99.90;;;;;;5032506;28;19909;-38
2023/05/13 03:14:36;;;;;;;;;;;13.60;99.90;;;;;;5032424;28;19909;-37
2023/05/13 03:17:02;;;;;;;;;;;13.60;99.90;;;;;;5031947;28;19905;-38
2023/05/13 03:19:27;;;;;;;;;;;13.60;99.90;;;;;;5032439;28;19909;-40
2023/05/13 03:21:53;;;;;;;;;;;13.60;99.90;;;;;;5032561;28;19974;-38
2023/05/13 03:24:18;;;;;;;;;;;13.70;99.90;;;;;;5032303;28;20431;-38
2023/05/13 03:26:44;;;;;;;;;;;13.60;99.90;;;;;;5031883;28;19905;-38
2023/05/13 03:29:09;;;;;;;;;;;13.60;99.90;;;;;;5032311;28;20362;-38
2023/05/13 03:31:35;;;;;;;;;;;13.60;99.90;;;;;;5032303;28;19935;-39
2023/05/13 03:34:01;;;;;;;;;;;13.60;99.90;;;;;;5032158;28;20011;-38
2023/05/13 03:36:26;;;;;;;;;;;13.60;99.90;;;;;;5031707;28;19948;-38
2023/05/13 03:38:52;;;;;;;;;;;13.60;99.90;;;;;;5032115;28;19917;-38
2023/05/13 03:41:17;;;;;;;;;;;13.60;99.90;;;;;;5032484;28;19906;-38
2023/05/13 03:43:43;;;;;;;;;;;13.60;99.90;;;;;;5032247;28;19909;-37
2023/05/13 03:46:09;;;;;;;;;;;13.60;99.90;;;;;;5031602;28;19912;-38
2023/05/13 03:48:35;;;;;;;;;;;13.60;99.90;;;;;;5032014;28;20008;-38
2023/05/13 03:51:01;;;;;;;;;;;13.60;99.90;;;;;;5032111;28;19990;-38
2023/05/13 03:53:26;;;;;;;;;;;13.60;99.90;;;;;;5032037;28;19964;-38
2023/05/13 03:55:52;;;;;;;;;;;13.60;99.90;;;;;;5031723;28;20003;-38
2023/05/13 03:58:18;;;;;;;;;;;13.60;99.90;;;;;;5031843;28;19905;-38
2023/05/13 04:00:46;;;;;;;;;;;13.60;99.90;;;;;;5031899;28;19905;-38
2023/05/13 04:03:12;;;;;;;;;;;13.60;99.90;;;;;;5032374;28;19905;-38
2023/05/13 04:05:38;;;;;;;;;;;13.60;99.90;;;;;;5031869;28;19911;-38
2023/05/13 04:08:03;;;;;;;;;;;13.60;99.90;;;;;;5031271;28;19905;-38
2023/05/13 04:10:29;;;;;;;;;;;13.60;99.90;;;;;;5031863;28;20016;-38
2023/05/13 04:12:54;;;;;;;;;;;13.60;99.90;;;;;;5031912;28;19912;-38
2023/05/13 04:15:20;;;;;;;;;;;13.60;99.90;;;;;;5032090;28;19959;-38
2023/05/13 04:17:46;;;;;;;;;;;13.60;99.90;;;;;;5031291;28;19905;-37
2023/05/13 04:20:11;;;;;;;;;;;13.60;99.90;;;;;;5031781;28;19913;-38
2023/05/13 04:22:37;;;;;;;;;;;13.60;99.90;;;;;;5035071;28;19912;-38
2023/05/13 04:25:02;;;;;;;;;;;13.60;99.90;;;;;;5035654;28;19931;-40
2023/05/13 04:27:28;;;;;;;;;;;13.60;99.90;;;;;;5035166;28;20350;-38
2023/05/13 04:29:53;;;;;;;;;;;13.60;99.90;;;;;;5035700;28;19913;-38
2023/05/13 04:32:20;;;;;;;;;;;13.60;99.90;;;;;;5035610;28;19913;-38
2023/05/13 04:34:49;;;;;;;;;;;13.60;99.90;;;;;;5035566;28;19959;-38
2023/05/13 04:37:15;;;;;;;;;;;13.60;99.90;;;;;;5034613;28;20081;-38
2023/05/13 04:39:40;;;;;;;;;;;13.60;99.90;;;;;;5035372;28;19912;-38
2023/05/13 04:42:06;;;;;;;;;;;13.60;99.90;;;;;;5035425;28;19905;-38
2023/05/13 04:44:32;;;;;;;;;;;13.60;99.90;;;;;;5035359;28;19947;-39
2023/05/13 04:46:57;;;;;;;;;;;13.60;99.90;;;;;;5034859;28;19906;-38
2023/05/13 04:49:23;;;;;;;;;;;13.60;99.90;;;;;;5035198;28;19905;-38
2023/05/13 04:51:48;;;;;;;;;;;13.60;99.90;;;;;;5034924;28;20267;-38
2023/05/13 04:54:14;;;;;;;;;;;13.60;99.90;;;;;;5035028;28;19916;-38
2023/05/13 04:56:40;;;;;;;;;;;13.60;99.90;;;;;;5034507;28;19912;-39
2023/05/13 04:59:07;;;;;;;;;;;13.60;99.90;;;;;;5035099;28;19911;-38
2023/05/13 05:01:32;;;;;;;;;;;13.60;99.90;;;;;;5034918;28;19959;-38
2023/05/13 05:03:58;;;;;;;;;;;13.60;99.90;;;;;;5034932;28;19905;-37
2023/05/13 05:06:23;;;;;;;;;;;13.60;99.90;;;;;;5034190;28;19905;-37
2023/05/13 05:08:49;;;;;;;;;;;13.60;99.90;;;;;;5035210;28;19924;-38
2023/05/13 05:11:14;;;;;;;;;;;13.50;99.90;;;;;;5035071;28;20381;-38
2023/05/13 05:13:40;;;;;;;;;;;13.60;99.90;;;;;;5034851;28;20368;-38
2023/05/13 05:16:06;;;;;;;;;;;13.60;99.90;;;;;;5034435;28;19909;-38
2023/05/13 05:18:31;;;;;;;;;;;13.60;99.90;;;;;;5034691;28;19999;-38
2023/05/13 05:20:57;;;;;;;;;;;13.50;99.90;;;;;;5034812;28;19952;-38
2023/05/13 05:23:22;;;;;;;;;;;13.60;99.90;;;;;;5034725;28;19909;-38
2023/05/13 05:25:48;;;;;;;;;;;13.60;99.90;;;;;;5034368;28;19905;-38
2023/05/13 05:28:13;;;;;;;;;;;13.60;99.90;;;;;;5034407;28;19909;-38
2023/05/13 05:30:39;;;;;;;;;;;13.60;99.90;;;;;;5034752;28;19948;-38
2023/05/13 05:33:05;;;;;;;;;;;13.60;99.90;;;;;;5033403;28;19906;-38
2023/05/13 05:35:32;;;;;;;;;;;13.50;99.90;;;;;;5034122;28;19913;-38
2023/05/13 05:37:58;;;;;;;;;;;13.60;99.90;;;;;;5033854;28;19916;-38
2023/05/13 05:40:23;;;;;;;;;;;13.60;99.90;;;;;;5034273;28;19912;-38
2023/05/13 05:42:49;;;;;;;;;;;13.60;99.90;;;;;;5034287;28;20374;-38
2023/05/13 05:45:14;;;;;;;;;;;13.60;99.90;;;;;;5034286;28;20362;-40
2023/05/13 05:47:40;;;;;;;;;;;13.60;99.90;;;;;;5034031;28;20354;-38
2023/05/13 05:50:05;;;;;;;;;;;13.50;99.90;;;;;;5033772;28;19912;-38
2023/05/13 05:52:31;;;;;;;;;;;13.50;99.90;;;;;;5034156;28;19935;-38
2023/05/13 05:54:57;;;;;;;;;;;13.60;99.90;;;;;;5034383;28;20362;-38
2023/05/13 05:57:22;;;;;;;;;;;13.60;99.90;;;;;;5033539;28;19916;-38
2023/05/13 05:59:48;;;;;;;;;;;13.50;99.90;;;;;;5034037;28;19920;-38
2023/05/13 06:02:13;;;;;;;;;;;13.60;99.90;;;;;;5033864;28;19909;-38
2023/05/13 06:04:40;;;;;;;;;;;13.50;99.90;;;;;;5033664;28;19905;-38
2023/05/13 06:07:06;;;;;;;;;;;13.60;99.90;;;;;;5033217;28;20362;-38
2023/05/13 06:09:32;;;;;;;;;;;13.50;99.90;;;;;;5033746;28;19908;-38
2023/05/13 06:11:57;;;;;;;;;;;13.50;99.90;;;;;;5033667;28;19958;-38
2023/05/13 06:14:23;;;;;;;;;;;13.50;99.90;;;;;;5033537;28;20286;-38
2023/05/13 06:16:48;;;;;;;;;;;13.50;99.90;;;;;;5032985;28;19905;-37
2023/05/13 06:19:14;;;;;;;;;;;13.50;99.90;;;;;;5033420;28;19905;-38
2023/05/13 06:21:41;;;;;;;;;;;13.60;99.90;;;;;;5033727;28;20004;-37
2023/05/13 06:24:07;;;;;;;;;;;13.60;99.90;;;;;;5033536;28;19913;-38
2023/05/13 06:26:33;;;;;;;;;;;13.60;99.90;;;;;;5032841;28;20024;-38
2023/05/13 06:28:58;;;;;;;;;;;13.60;99.90;;;;;;5033092;28;19912;-38
2023/05/13 06:31:24;;;;;;;;;;;13.60;99.90;;;;;;5033461;28;19912;-38
2023/05/13 06:33:50;;;;;;;;;;;13.60;99.90;;;;;;5033320;28;20380;-38
2023/05/13 06:36:15;;;;;;;;;;;13.60;99.90;;;;;;5032954;28;19992;-38
2023/05/13 06:38:41;;;;;;;;;;;13.60;99.90;;;;;;5033107;28;19919;-38
2023/05/13 06:41:06;;;;;;;;;;;13.50;99.90;;;;;;5033184;28;20297;-38
2023/05/13 06:43:32;;;;;;;;;;;13.60;99.90;;;;;;5032619;28;19998;-38
2023/05/13 06:45:58;;;;;;;;;;;13.60;99.90;;;;;;5032713;28;19905;-38
2023/05/13 06:48:24;;;;;;;;;;;13.60;99.90;;;;;;5032745;28;19944;-38
2023/05/13 06:50:49;;;;;;;;;;;13.60;99.90;;;;;;5032958;28;19936;-38
2023/05/13 06:53:15;;;;;;;;;;;13.60;99.90;;;;;;5033130;28;19905;-38
2023/05/13 06:55:41;;;;;;;;;;;13.60;99.90;;;;;;5032755;28;19909;-38
2023/05/13 06:58:07;;;;;;;;;;;13.60;99.90;;;;;;5032276;28;19905;-39
2023/05/13 07:00:41;;;;;;;;;;;13.70;99.90;;;;;;5032765;28;19948;-39
2023/05/13 07:03:07;;;;;;;;;;;13.50;99.90;;;;;;5032876;28;19999;-39
2023/05/13 07:05:33;;;;;;;;;;;13.40;99.90;;;;;;5032821;28;20480;-40
2023/05/13 07:07:59;;;;;;;;;;;13.30;99.90;;;;;;5032050;28;20362;-40
2023/05/13 07:10:24;;;;;;;;;;;13.30;99.90;;;;;;5032563;28;19911;-39
2023/05/13 07:12:50;;;;;;;;;;;13.30;99.90;;;;;;5032580;28;19905;-40
2023/05/13 07:15:15;;;;;;;;;;;13.20;99.90;;;;;;5032450;28;19909;-39
2023/05/13 07:17:41;;;;;;;;;;;13.30;99.90;;;;;;5031766;28;20004;-39
2023/05/13 07:20:07;;;;;;;;;;;13.30;99.90;;;;;;5032510;28;19909;-40
2023/05/13 07:22:33;;;;;;;;;;;13.40;99.90;;;;;;5032505;28;20385;-40
2023/05/13 07:24:59;;;;;;;;;;;13.40;99.90;;;;;;5032515;28;19906;-40
2023/05/13 07:27:25;;;;;;;;;;;13.40;99.90;;;;;;5031883;28;19912;-40
2023/05/13 07:29:50;;;;;;;;;;;13.50;99.90;;;;;;5032620;28;19912;-39
2023/05/13 07:32:16;;;;;;;;;;;13.50;99.90;;;;;;5032081;28;19994;-39
2023/05/13 07:34:41;;;;;;;;;;;13.50;99.90;;;;;;5032363;28;20024;-40
2023/05/13 07:37:07;;;;;;;;;;;13.60;99.90;;;;;;5073316;22;19952;-42
2023/05/13 07:39:32;;;;;;;;;;;13.60;99.90;;;;;;5030060;28;20015;-42
2023/05/13 07:41:58;;;;;;;;;;;13.60;99.90;;;;;;5032221;28;19991;-42
2023/05/13 07:44:23;;;;;;;;;;;13.60;99.90;;;;;;5032170;28;19905;-44
2023/05/13 07:46:52;;;;;;;;;;;13.60;99.90;;;;;;5031600;28;20378;-45
2023/05/13 07:49:17;;;;;;;;;;;13.60;99.90;;;;;;5032017;28;20289;-43
2023/05/13 07:51:43;;;;;;;;;;;13.70;99.90;;;;;;5032040;28;19905;-44
2023/05/13 07:54:09;;;;;;;;;;;13.70;99.90;;;;;;5031991;28;19908;-45
2023/05/13 07:56:34;;;;;;;;;;;13.70;99.90;;;;;;5033505;28;19905;-41
2023/05/13 07:59:00;;;;;;;;;;;13.70;99.90;;;;;;5036316;28;19908;-42
2023/05/13 08:01:27;;;;;;;;;;;13.70;99.90;;;;;;5036191;28;19951;-42
2023/05/13 08:03:52;;;;;;;;;;;13.80;99.90;;;;;;5036060;28;19913;-42
2023/05/13 08:06:18;;;;;;;;;;;13.80;99.90;;;;;;5035435;28;20047;-42
2023/05/13 08:08:44;;;;;;;;;;;13.90;99.90;;;;;;5035976;28;19912;-43
2023/05/13 08:11:09;;;;;;;;;;;13.90;99.90;;;;;;5035938;28;19905;-41
2023/05/13 08:13:35;;;;;;;;;;;13.90;99.90;;;;;;5035870;28;19905;-42
2023/05/13 08:16:02;;;;;;;;;;;13.90;99.90;;;;;;5035341;28;20136;-46
2023/05/13 08:18:27;;;;;;;;;;;13.90;99.90;;;;;;5034395;28;19905;-45
2023/05/13 08:20:53;;;;;;;;;;;13.90;99.90;;;;;;5035750;28;19905;-43
2023/05/13 08:23:18;;;;;;;;;;;14.00;99.90;;;;;;5035783;28;20191;-45
2023/05/13 08:25:44;;;;;;;;;;;14.00;99.90;;;;;;5035453;28;19959;-44
2023/05/13 08:28:10;;;;;;;;;;;14.00;99.90;;;;;;5035374;28;19912;-41
2023/05/13 08:30:35;;;;;;;;;;;14.00;99.90;;;;;;5035571;28;20317;-42
2023/05/13 08:33:01;;;;;;;;;;;14.00;99.90;;;;;;5035518;28;19905;-42
2023/05/13 08:35:26;;;;;;;;;;;14.00;99.90;;;;;;5035306;28;19960;-42
2023/05/13 08:37:52;;;;;;;;;;;14.00;99.90;;;;;;5034930;28;20000;-42
2023/05/13 08:40:17;;;;;;;;;;;14.10;99.90;;;;;;5035416;28;19937;-42
2023/05/13 08:42:46;;;;;;;;;;;14.10;99.90;;;;;;5035402;28;19905;-42
2023/05/13 08:45:11;;;;;;;;;;;14.10;99.90;;;;;;5035645;28;19912;-43
2023/05/13 08:47:51;;;;;;;;;;;14.10;99.90;;;;;;5034723;28;19909;-44
2023/05/13 08:50:18;;;;;;;;;;;14.10;99.90;;;;;;5035167;28;19912;-43
2023/05/13 08:52:43;;;;;;;;;;;14.10;99.90;;;;;;5035223;28;19970;-44
2023/05/13 08:55:09;;;;;;;;;;;14.20;99.90;;;;;;5035099;28;20320;-42
2023/05/13 08:57:34;;;;;;;;;;;14.20;99.90;;;;;;5034539;28;19912;-45
2023/05/13 09:00:00;;;;;;;;;;;14.20;99.90;;;;;;5035041;28;19905;-42
2023/05/13 09:02:25;;;;;;;;;;;14.30;99.90;;;;;;5034994;28;20289;-42
2023/05/13 09:04:51;;;;;;;;;;;14.30;99.90;;;;;;5034810;28;19909;-41
2023/05/13 09:07:17;;;;;;;;;;;14.30;99.90;;;;;;5034071;28;19913;-42
2023/05/13 09:09:43;;;;;;;;;;;14.30;99.90;;;;;;5034860;28;19916;-43
2023/05/13 09:12:09;;;;;;;;;;;14.30;99.90;;;;;;5034745;28;19996;-43
2023/05/13 09:14:36;;;;;;;;;;;14.30;99.90;;;;;;5034673;28;20008;-45
2023/05/13 09:17:01;;;;;;;;;;;14.30;99.90;;;;;;5034035;28;19920;-41
2023/05/13 09:19:27;;;;;;;;;;;14.30;99.90;;;;;;5034439;28;19912;-42
2023/05/13 09:21:53;;;;;;;;;;;14.30;99.90;;;;;;5034661;28;19916;-44
2023/05/13 09:24:20;;;;;;;;;;;14.30;99.90;;;;;;5034871;28;19963;-43
2023/05/13 09:26:49;;;;;;;;;;;14.40;99.90;;;;;;5034119;28;20210;-44
2023/05/13 09:29:22;;;;;;;;;;;14.30;99.90;;;;;;5034378;28;19905;-43
2023/05/13 09:31:50;;;;;;;;;;;14.30;99.90;;;;;;5034340;28;19944;-42
2023/05/13 09:34:29;;;;;;;;;;;14.40;99.90;;;;;;5034322;28;20361;-42
2023/05/13 09:36:55;;;;;;;;;;;14.40;99.90;;;;;;5033896;28;19904;-42
2023/05/13 09:39:20;;;;;;;;;;;14.40;99.90;;;;;;5034225;28;19947;-42
2023/05/13 09:41:46;;;;;;;;;;;14.40;99.90;;;;;;5034282;28;19904;-45
2023/05/13 09:44:12;;;;;;;;;;;14.30;99.90;;;;;;5034136;28;19904;-43
2023/05/13 09:46:37;;;;;;;;;;;14.30;99.90;;;;;;5033645;28;20365;-43
2023/05/13 09:49:03;;;;;;;;;;;14.30;99.90;;;;;;5034129;28;19905;-42
2023/05/13 09:51:29;;;;;;;;;;;14.30;99.90;;;;;;5034133;28;20366;-43
2023/05/13 09:54:01;;;;;;;;;;;14.30;99.90;;;;;;5034021;28;19927;-42
2023/05/13 09:56:29;;;;;;;;;;;14.40;99.90;;;;;;5033538;28;19908;-44
2023/05/13 09:58:55;;;;;;;;;;;14.40;99.90;;;;;;5034248;28;19920;-42
2023/05/13 10:01:21;;;;;;;;;;;14.30;99.90;;;;;;5033867;28;19905;-44
2023/05/13 10:03:47;;;;;;;;;;;14.40;99.90;;;;;;5033862;28;19912;-43
2023/05/13 10:06:16;;;;;;;;;;;14.40;99.90;;;;;;5033263;28;20388;-42
2023/05/13 10:08:42;;;;;;;;;;;14.40;99.90;;;;;;5033680;28;19912;-42
2023/05/13 10:11:07;;;;;;;;;;;14.40;99.90;;;;;;5032416;28;19905;-42
2023/05/13 10:13:33;;;;;;;;;;;14.40;99.90;;;;;;5033487;28;19905;-44
2023/05/13 10:15:58;;;;;;;;;;;14.40;99.90;;;;;;5033105;28;20023;-42
2023/05/13 10:18:24;;;;;;;;;;;14.30;99.90;;;;;;5032875;28;20365;-43
2023/05/13 10:20:51;;;;;;;;;;;14.30;99.90;;;;;;5033391;28;19932;-45
2023/05/13 10:23:18;;;;;;;;;;;14.30;99.90;;;;;;5033477;28;19905;-42
2023/05/13 10:25:45;;;;;;;;;;;14.30;99.90;;;;;;5033184;28;20007;-42
2023/05/13 10:28:12;;;;;;;;;;;14.40;99.90;;;;;;5032937;28;19909;-45
2023/05/13 10:30:38;;;;;;;;;;;14.40;99.90;;;;;;5033389;28;19912;-44
2023/05/13 10:33:03;;;;;;;;;;;14.40;99.90;;;;;;5032950;28;19905;-41
2023/05/13 10:35:31;;;;;;;;;;;14.40;99.90;;;;;;5027155;28;19949;-42
2023/05/13 10:37:56;;;;;;;;;;;14.10;99.90;;;;;;5027890;28;20008;-40
2023/05/13 10:40:28;;;;;;;;;;;13.90;99.90;;;;;;5029759;28;20011;-43
2023/05/13 10:43:00;;;;;;;;;;;13.80;99.90;;;;;;5034995;28;19948;-41
2023/05/13 10:45:26;;;;;;;;;;;13.80;99.90;;;;;;5034914;28;19948;-42
2023/05/13 10:47:53;;;;;;;;;;;13.90;99.90;;;;;;5032926;28;19905;-41
2023/05/13 10:50:22;;;;;;;;;;;13.90;99.90;;;;;;5034320;28;20232;-41
2023/05/13 10:52:48;;;;;;;;;;;13.90;99.90;;;;;;5034494;28;19905;-41
2023/05/13 10:55:17;;;;;;;;;;;13.90;99.90;;;;;;5034284;28;20378;-41
2023/05/13 10:58:09;;;;;;;;;;;14.00;99.90;;;;;;5033466;28;19959;-41
2023/05/13 11:00:36;;;;;;;;;;;14.00;99.90;;;;;;5032636;28;19963;-41
2023/05/13 11:03:11;;;;;;;;;;;14.00;99.90;;;;;;5033951;28;19959;-40
2023/05/13 11:05:38;;;;;;;;;;;14.10;99.90;;;;;;5033871;28;19905;-41
2023/05/13 11:08:04;;;;;;;;;;;14.10;99.90;;;;;;5033639;28;20305;-43
2023/05/13 11:10:30;;;;;;;;;;;14.10;99.90;;;;;;5033541;28;20007;-42
2023/05/13 11:13:14;;;;;;;;;;;14.10;99.90;;;;;;5033435;28;19911;-41
2023/05/13 11:15:58;;;;;;;;;;;14.20;99.90;;;;;;5033224;28;19913;-42
2023/05/13 11:18:31;;;;;;;;;;;14.20;99.90;;;;;;5033327;28;19905;-41
2023/05/13 11:21:01;;;;;;;;;;;14.20;99.90;;;;;;5033450;28;19905;-44
2023/05/13 11:23:26;;;;;;;;;;;14.20;99.90;;;;;;5033241;28;20350;-44
2023/05/13 11:26:10;;;;;;;;;;;14.20;99.90;;;;;;5031674;28;20369;-40
2023/05/13 11:28:54;;;;;;;;;;;14.30;99.90;;;;;;5032831;28;20361;-40
2023/05/13 11:31:21;;;;;;;;;;;14.30;99.90;;;;;;5033068;28;19944;-46
2023/05/13 11:34:05;;;;;;;;;;;14.30;99.90;;;;;;5033130;28;19944;-41
2023/05/13 11:36:31;;;;;;;;;;;14.30;99.90;;;;;;5032737;28;19918;-42
2023/05/13 11:39:09;;;;;;;;;;;14.30;99.90;;;;;;5033114;28;19913;-41
2023/05/13 11:41:35;;;;;;;;;;;14.30;99.90;;;;;;5032917;28;19951;-41
2023/05/13 11:44:02;;;;;;;;;;;14.30;99.90;;;;;;5033143;28;19905;-40
2023/05/13 11:46:28;;;;;;;;;;;14.40;99.90;;;;;;5032421;28;20358;-41
2023/05/13 11:48:53;;;;;;;;;;;14.30;99.90;;;;;;5033223;28;19921;-41
2023/05/13 11:51:19;;;;;;;;;;;14.40;99.90;;;;;;5028662;28;19913;-40
2023/05/13 11:53:44;;;;;;;;;;;14.40;99.90;;;;;;5029062;28;19916;-43
2023/05/13 11:56:11;;;;;;;;;;;14.30;99.90;;;;;;5032259;28;19908;-42
2023/05/13 11:58:37;;;;;;;;;;;14.30;99.90;;;;;;5032665;28;19905;-41
2023/05/13 12:01:02;;;;;;;;;;;14.30;99.90;;;;;;5031874;28;19916;-41
2023/05/13 12:03:28;;;;;;;;;;;14.40;99.90;;;;;;5032996;28;19905;-41
2023/05/13 12:06:00;;;;;;;;;;;14.40;99.90;;;;;;5032413;28;19908;-44
2023/05/13 12:08:26;;;;;;;;;;;14.40;99.90;;;;;;5032702;28;19905;-40
2023/05/13 12:10:51;;;;;;;;;;;14.40;99.90;;;;;;5032674;28;19912;-41
2023/05/13 12:13:17;;;;;;;;;;;14.40;99.90;;;;;;5032457;28;19905;-41
2023/05/13 12:15:43;;;;;;;;;;;14.40;99.90;;;;;;5032365;28;19919;-43
2023/05/13 12:18:08;;;;;;;;;;;14.50;99.90;;;;;;5032180;28;19904;-41
2023/05/13 12:20:34;;;;;;;;;;;14.40;99.90;;;;;;5032654;28;20281;-41
2023/05/13 12:23:00;;;;;;;;;;;14.40;99.90;;;;;;5032322;28;19905;-41
2023/05/13 12:25:35;;;;;;;;;;;14.50;99.90;;;;;;5032668;28;20282;-43
2023/05/13 12:28:16;;;;;;;;;;;14.50;99.90;;;;;;5031720;28;19905;-42
2023/05/13 12:30:48;;;;;;;;;;;14.50;99.90;;;;;;5032501;28;20301;-41
2023/05/13 12:33:20;;;;;;;;;;;14.50;99.90;;;;;;5032445;28;19995;-41
2023/05/13 12:35:47;;;;;;;;;;;14.50;99.90;;;;;;5032081;28;19909;-41
2023/05/13 12:38:14;;;;;;;;;;;14.50;99.90;;;;;;5031974;28;19913;-44
2023/05/13 12:40:39;;;;;;;;;;;14.50;99.90;;;;;;5032407;28;20278;-42
2023/05/13 12:43:05;;;;;;;;;;;14.40;99.90;;;;;;5034854;28;19916;-42
2023/05/13 12:45:31;;;;;;;;;;;14.50;99.90;;;;;;5036241;28;19908;-44
2023/05/13 12:47:57;;;;;;;;;;;14.50;99.90;;;;;;5035403;28;19912;-43
2023/05/13 12:50:23;;;;;;;;;;;14.40;99.90;;;;;;5035917;28;19905;-42
2023/05/13 12:52:48;;;;;;;;;;;14.50;99.90;;;;;;5035767;28;19905;-41
2023/05/13 12:55:14;;;;;;;;;;;14.50;99.90;;;;;;5035537;28;19956;-41
2023/05/13 12:57:41;;;;;;;;;;;14.50;99.90;;;;;;5035452;28;19912;-42
2023/05/13 13:00:08;;;;;;;;;;;14.50;99.90;;;;;;5035799;28;19904;-41
2023/05/13 13:02:34;;;;;;;;;;;14.50;99.90;;;;;;5035679;28;19911;-41
2023/05/13 13:04:59;;;;;;;;;;;14.50;99.90;;;;;;5035542;28;19905;-41
2023/05/13 13:07:25;;;;;;;;;;;14.50;99.90;;;;;;5034921;28;20304;-43
2023/05/13 13:09:50;;;;;;;;;;;14.50;99.90;;;;;;5035543;28;20374;-44
2023/05/13 13:12:16;;;;;;;;;;;14.50;99.90;;;;;;5035352;28;19908;-43
2023/05/13 13:14:41;;;;;;;;;;;14.50;99.90;;;;;;5035245;28;19909;-46
2023/05/13 13:17:07;;;;;;;;;;;14.50;99.90;;;;;;5034655;28;19959;-41
2023/05/13 13:19:32;;;;;;;;;;;14.50;99.90;;;;;;5035275;28;19909;-41
2023/05/13 13:21:58;;;;;;;;;;;14.50;99.90;;;;;;5035289;28;20282;-41
2023/05/13 13:24:23;;;;;;;;;;;14.50;99.90;;;;;;5034973;28;20380;-43
2023/05/13 13:26:49;;;;;;;;;;;14.50;99.90;;;;;;5034564;28;20346;-41
2023/05/13 13:29:14;;;;;;;;;;;14.50;99.90;;;;;;5034898;28;19905;-43
2023/05/13 13:31:40;;;;;;;;;;;14.50;99.90;;;;;;5035227;28;19994;-41
2023/05/13 13:34:06;;;;;;;;;;;14.50;99.90;;;;;;5034783;28;19905;-41
2023/05/13 13:36:31;;;;;;;;;;;14.50;99.90;;;;;;5034683;28;20428;-43
2023/05/13 13:38:57;;;;;;;;;;;14.50;99.90;;;;;;5056159;23;19921;-40
2023/05/13 13:41:24;;;;;;;;;;;14.50;99.90;;;;;;5034362;28;19951;-39
2023/05/13 13:43:52;;;;;;;;;;;14.50;99.90;;;;;;5034130;28;19951;-40
2023/05/13 13:46:18;;;;;;;;;;;14.50;99.90;;;;;;5033720;28;20280;-40
2023/05/13 13:48:43;;;;;;;;;;;14.50;99.90;;;;;;5034170;28;19995;-40
2023/05/13 13:51:09;;;;;;;;;;;14.50;99.90;;;;;;5034170;28;20009;-39
2023/05/13 13:53:34;;;;;;;;;;;14.50;99.90;;;;;;5033095;28;19905;-40
2023/05/13 13:56:00;;;;;;;;;;;14.50;99.90;;;;;;5033636;28;19909;-39
2023/05/13 13:58:25;;;;;;;;;;;14.50;99.90;;;;;;5033859;28;19905;-40
2023/05/13 14:00:51;;;;;;;;;;;14.60;99.90;;;;;;5033966;28;19905;-40
2023/05/13 14:03:17;;;;;;;;;;;14.50;99.90;;;;;;5034100;28;20412;-40
2023/05/13 14:05:43;;;;;;;;;;;14.50;99.90;;;;;;5033766;28;20448;-40
2023/05/13 14:08:08;;;;;;;;;;;14.50;99.90;;;;;;5033415;28;19909;-41
2023/05/13 14:10:34;;;;;;;;;;;14.50;99.90;;;;;;5033796;28;19905;-39
2023/05/13 14:12:59;;;;;;;;;;;14.50;99.90;;;;;;5033599;28;20316;-39